Time;durP1;ratioP1;P1;durP2;ratioP2;P2;SDS_P1;SDS_P2;PMS_P1;PMS_P2;Temp;Humidity;BMP_temperature;BMP_pressure;BME280_temperature;BME280_humidity;BME280_pressure;Samples;Min_cycle;Max_cycle;Signal;HPM_P1;HPM_P2
2021/03/13 00:00:41;;;;;;;;;11.33;9.00;;;;;6.58;83.74;99399.69;5014428;28;8859;-55
2021/03/13 00:03:11;;;;;;;;;9.67;8.00;;;;;6.60;82.44;99409.34;5014595;28;9524;-56
2021/03/13 00:05:41;;;;;;;;;15.33;10.00;;;;;6.23;84.40;99410.28;5014643;28;9636;-54
2021/03/13 00:08:09;;;;;;;;;14.33;12.00;;;;;6.27;84.60;99414.53;5013933;28;8869;-55
2021/03/13 00:10:38;;;;;;;;;18.33;13.00;;;;;6.31;85.67;99399.25;5003596;28;8843;-56
2021/03/13 00:13:08;;;;;;;;;13.67;12.00;;;;;6.36;84.67;99408.75;5014726;28;8850;-56
2021/03/13 00:15:38;;;;;;;;;17.00;9.67;;;;;6.31;85.53;99402.78;5014419;28;8867;-55
2021/03/13 00:18:07;;;;;;;;;6.67;6.00;;;;;6.19;84.94;99398.06;5014499;28;8828;-55
2021/03/13 00:20:37;;;;;;;;;17.00;12.00;;;;;6.06;86.42;99413.78;5013875;28;8878;-56
2021/03/13 00:23:05;;;;;;;;;12.00;12.00;;;;;6.34;85.92;99410.63;5013412;28;8843;-56
2021/03/13 00:25:34;;;;;;;;;9.67;9.33;;;;;6.26;84.85;99404.81;5013689;28;8851;-56
2021/03/13 00:28:03;;;;;;;;;9.67;9.00;;;;;6.45;84.15;99395.91;5014289;28;8827;-57
2021/03/13 00:30:40;;;;;;;;;13.33;9.67;;;;;6.45;84.37;99407.47;5014052;28;8847;-56
2021/03/13 00:33:16;;;;;;;;;12.67;10.33;;;;;6.44;84.37;99402.19;5013536;28;8839;-56
2021/03/13 00:35:46;;;;;;;;;13.00;8.00;;;;;6.49;84.12;99398.34;5013169;28;8887;-56
2021/03/13 00:38:15;;;;;;;;;11.33;9.00;;;;;6.56;83.82;99393.59;5014303;28;8851;-56
2021/03/13 00:40:44;;;;;;;;;9.33;8.00;;;;;6.59;83.04;99402.28;5013802;28;8847;-57
2021/03/13 00:43:13;;;;;;;;;12.00;8.00;;;;;6.59;83.24;99402.28;5013153;28;8827;-54
2021/03/13 00:45:43;;;;;;;;;11.33;9.00;;;;;6.37;82.86;99402.50;5013770;28;8843;-56
2021/03/13 00:48:11;;;;;;;;;17.00;10.00;;;;;6.33;83.84;99400.91;5013904;28;8839;-55
2021/03/13 00:50:42;;;;;;;;;13.00;9.67;;;;;6.19;83.22;99403.41;5012886;28;9576;-56
2021/03/13 00:53:09;;;;;;;;;16.33;12.00;;;;;6.38;83.53;99396.22;5014000;28;8858;-56
2021/03/13 00:55:36;;;;;;;;;10.67;9.00;;;;;6.34;83.32;99389.28;5013484;28;8847;-56
2021/03/13 00:58:04;;;;;;;;;10.67;9.00;;;;;6.48;83.19;99396.63;5011505;28;8922;-56
2021/03/13 01:00:37;;;;;;;;;12.00;10.67;;;;;6.28;83.81;99399.41;5012622;28;8843;-54
2021/03/13 01:03:08;;;;;;;;;9.33;9.33;;;;;6.12;84.19;99393.97;5013599;28;9552;-54
2021/03/13 01:05:35;;;;;;;;;18.33;12.00;;;;;6.15;84.99;99394.66;5013206;28;8815;-56
2021/03/13 01:08:06;;;;;;;;;13.00;9.67;;;;;6.14;84.58;99386.75;5009414;28;8917;-55
2021/03/13 01:10:51;;;;;;;;;6.00;6.00;;;;;6.16;84.89;99390.19;4994263;28;8834;-54
2021/03/13 01:13:22;;;;;;;;;15.67;12.33;;;;;6.12;85.86;99384.16;4994036;28;8830;-55
2021/03/13 01:15:49;;;;;;;;;15.33;13.67;;;;;5.87;87.02;99388.88;5002120;28;8847;-55
2021/03/13 01:18:19;;;;;;;;;13.67;13.67;;;;;5.72;87.96;99388.69;5012987;28;8850;-56
2021/03/13 01:20:49;;;;;;;;;17.00;13.67;;;;;5.92;87.20;99387.75;5012978;28;8954;-54
2021/03/13 01:23:16;;;;;;;;;13.00;13.00;;;;;5.68;87.48;99384.41;5013269;28;8827;-56
2021/03/13 01:25:43;;;;;;;;;13.00;10.33;;;;;5.92;86.36;99381.53;5012939;28;8955;-55
2021/03/13 01:28:10;;;;;;;;;13.00;11.67;;;;;5.68;88.08;99378.22;5012467;28;8835;-54
2021/03/13 01:30:47;;;;;;;;;17.00;13.00;;;;;5.46;88.36;99376.56;5012703;28;8835;-54
2021/03/13 01:33:17;;;;;;;;;13.00;11.00;;;;;5.77;87.66;99374.28;5012983;28;8843;-55
2021/03/13 01:35:43;;;;;;;;;19.67;14.33;;;;;5.72;88.20;99370.03;5012605;28;8851;-55
2021/03/13 01:38:10;;;;;;;;;12.67;11.33;;;;;5.56;87.68;99376.16;5012887;28;8850;-56
2021/03/13 01:40:39;;;;;;;;;13.67;12.33;;;;;5.49;88.75;99379.06;5013027;28;8860;-54
2021/03/13 01:43:06;;;;;;;;;20.00;16.00;;;;;5.67;87.94;99374.72;5013438;28;8839;-55
2021/03/13 01:45:33;;;;;;;;;17.33;15.67;;;;;5.56;87.49;99378.81;5012888;28;9115;-55
2021/03/13 01:48:02;;;;;;;;;17.00;13.00;;;;;5.64;88.33;99374.00;5012223;28;8865;-55
2021/03/13 01:50:31;;;;;;;;;16.00;13.00;;;;;5.64;88.20;99382.00;5011626;28;8873;-55
2021/03/13 01:52:57;;;;;;;;;23.00;17.67;;;;;5.48;89.14;99393.34;5012842;28;8851;-55
2021/03/13 01:55:24;;;;;;;;;22.33;16.33;;;;;5.65;88.84;99383.72;5011435;28;8977;-54
2021/03/13 01:57:51;;;;;;;;;20.67;16.33;;;;;5.56;88.92;99378.81;5011286;28;9643;-54
2021/03/13 02:00:23;;;;;;;;;21.33;18.33;;;;;5.55;88.78;99379.72;5011976;28;8847;-56
2021/03/13 02:02:55;;;;;;;;;24.67;17.33;;;;;5.35;89.50;99375.34;4995563;28;8862;-53
2021/03/13 02:05:34;;;;;;;;;24.33;21.00;;;;;5.37;90.28;99384.97;5013195;28;9761;-56
2021/03/13 02:08:40;;;;;;;;;17.67;15.00;;;;;5.49;89.97;99381.75;5011803;28;8942;-55
2021/03/13 02:11:23;;;;;;;;;28.67;21.67;;;;;5.27;90.74;99387.19;5011176;28;8840;-56
2021/03/13 02:14:17;;;;;;;;;18.67;15.67;;;;;5.38;90.50;99384.03;5015432;28;8827;-55
2021/03/13 02:17:16;;;;;;;;;23.67;17.33;;;;;5.36;90.34;99387.69;5011158;28;8863;-56
2021/03/13 02:20:20;;;;;;;;;19.00;15.33;;;;;5.25;91.19;99381.06;5016623;28;8855;-54
2021/03/13 02:22:51;;;;;;;;;19.67;16.00;;;;;5.41;90.45;99393.69;5015662;28;8839;-54
2021/03/13 02:26:05;;;;;;;;;16.33;15.33;;;;;5.30;91.52;99388.84;5016224;28;8916;-55
2021/03/13 02:29:07;;;;;;;;;21.00;16.00;;;;;5.26;91.12;99393.41;5016001;28;8953;-55
2021/03/13 02:31:49;;;;;;;;;19.00;15.25;;;;;5.28;91.57;99398.69;5014278;28;8847;-54
2021/03/13 02:34:34;;;;;;;;;18.67;14.33;;;;;5.02;92.16;99395.38;5015494;28;8883;-53
2021/03/13 02:37:10;;;;;;;;;20.00;13.33;;;;;5.05;92.47;99392.59;5014575;28;8917;-54
2021/03/13 02:39:41;;;;;;;;;20.75;17.25;;;;;5.14;91.85;99393.13;5015428;28;8865;-54
2021/03/13 02:42:09;;;;;;;;;21.75;14.00;;;;;5.02;92.03;99395.38;5014873;28;9645;-53
2021/03/13 02:44:38;;;;;;;;;25.67;18.33;;;;;5.04;91.61;99398.84;5015925;28;8868;-56
2021/03/13 02:47:08;;;;;;;;;17.33;12.33;;;;;5.08;91.66;99396.91;5014321;28;8843;-54
2021/03/13 02:49:38;;;;;;;;;19.33;15.00;;;;;4.93;92.54;99406.44;5016401;28;8855;-55
2021/03/13 02:52:07;;;;;;;;;22.67;19.00;;;;;4.95;92.62;99409.00;5014111;28;8839;-54
2021/03/13 02:54:39;;;;;;;;;25.33;19.00;;;;;5.19;91.90;99412.41;5014955;28;8905;-54
2021/03/13 02:57:10;;;;;;;;;27.67;19.00;;;;;5.10;91.63;99412.81;5014740;28;8942;-55
2021/03/13 02:59:38;;;;;;;;;21.50;14.75;;;;;5.16;92.13;99412.53;5015254;28;8921;-56
2021/03/13 03:02:07;;;;;;;;;20.33;16.33;;;;;5.11;92.22;99414.53;5014395;28;8855;-55
2021/03/13 03:04:37;;;;;;;;;19.50;16.75;;;;;5.09;92.01;99416.41;5016046;28;8843;-56
2021/03/13 03:07:05;;;;;;;;;18.00;13.33;;;;;5.01;92.41;99430.03;5014181;28;8870;-54
2021/03/13 03:09:32;;;;;;;;;19.33;17.33;;;;;5.03;92.69;99434.38;5015576;28;8827;-54
2021/03/13 03:12:01;;;;;;;;;14.00;13.75;;;;;4.84;93.04;99428.97;5015503;28;8862;-55
2021/03/13 03:14:29;;;;;;;;;27.75;16.50;;;;;4.93;92.55;99432.16;5014618;28;8830;-54
2021/03/13 03:17:01;;;;;;;;;23.33;18.00;;;;;4.91;92.99;99436.69;5007746;28;8946;-54
2021/03/13 03:19:31;;;;;;;;;18.00;17.25;;;;;4.96;92.51;99442.69;4996155;28;8837;-55
2021/03/13 03:22:01;;;;;;;;;20.00;19.50;;;;;4.90;93.22;99450.91;5012124;28;8830;-55
2021/03/13 03:24:31;;;;;;;;;25.25;16.75;;;;;4.76;93.22;99441.69;5015172;28;8823;-54
2021/03/13 03:27:00;;;;;;;;;22.00;19.00;;;;;4.70;93.69;99447.28;5014109;28;8917;-55
2021/03/13 03:29:28;;;;;;;;;23.50;18.50;;;;;4.70;93.22;99441.09;5015124;28;8863;-53
2021/03/13 03:31:55;;;;;;;;;28.50;19.00;;;;;4.66;93.14;99445.69;5013442;28;8945;-54
2021/03/13 03:34:22;;;;;;;;;27.75;21.00;;;;;4.42;94.40;99458.16;5015330;28;8839;-54
2021/03/13 03:36:49;;;;;;;;;28.00;25.00;;;;;4.54;94.42;99454.16;5014817;28;9581;-51
2021/03/13 03:39:16;;;;;;;;;30.00;24.00;;;;;4.54;94.12;99456.81;5013543;28;8839;-54
2021/03/13 03:41:50;;;;;;;;;24.00;20.75;;;;;4.49;94.19;99454.34;5013066;28;8886;-53
2021/03/13 03:44:26;;;;;;;;;28.50;21.75;;;;;4.56;94.85;99458.50;5013055;28;9555;-55
2021/03/13 03:47:00;;;;;;;;;30.00;23.50;;;;;4.27;94.18;99453.50;5012562;28;8878;-53
2021/03/13 03:49:27;;;;;;;;;27.75;17.25;;;;;4.28;95.26;99456.06;4996261;28;9513;-52
2021/03/13 03:51:55;;;;;;;;;25.00;16.25;;;;;4.18;95.07;99454.69;5013430;28;8854;-55
2021/03/13 03:54:23;;;;;;;;;25.00;20.75;;;;;4.31;95.25;99461.25;5012517;28;8843;-54
2021/03/13 03:56:51;;;;;;;;;31.00;21.00;;;;;4.45;94.97;99458.06;5011533;28;8886;-54
2021/03/13 03:59:20;;;;;;;;;23.50;20.00;;;;;4.61;94.27;99471.59;5011218;28;8925;-53
2021/03/13 04:01:52;;;;;;;;;22.50;21.00;;;;;4.61;94.16;99463.63;5011158;28;8855;-53
2021/03/13 04:04:24;;;;;;;;;26.25;17.75;;;;;4.61;94.58;99459.19;5012518;28;8855;-52
2021/03/13 04:06:54;;;;;;;;;19.25;15.00;;;;;4.65;94.25;99459.03;5012468;28;8957;-55
2021/03/13 04:09:25;;;;;;;;;21.50;19.00;;;;;4.75;92.80;99465.72;5012082;28;8863;-55
2021/03/13 04:11:55;;;;;;;;;22.00;16.50;;;;;4.75;93.65;99466.56;5011698;28;8862;-52
2021/03/13 04:14:24;;;;;;;;;18.25;12.25;;;;;4.57;93.60;99468.19;5012921;28;8929;-54
2021/03/13 04:16:52;;;;;;;;;20.00;17.25;;;;;4.31;94.36;99463.91;5011551;28;8877;-54
2021/03/13 04:19:19;;;;;;;;;22.00;16.25;;;;;4.32;94.46;99465.66;5012321;28;8835;-54
2021/03/13 04:21:47;;;;;;;;;14.50;11.75;;;;;4.67;93.73;99454.53;5010790;28;8950;-54
2021/03/13 04:24:15;;;;;;;;;21.75;15.50;;;;;4.58;93.37;99450.44;5012084;28;8933;-54
2021/03/13 04:26:44;;;;;;;;;19.25;12.25;;;;;4.86;92.08;99455.50;5011981;28;8850;-52
2021/03/13 04:29:12;;;;;;;;;12.00;11.00;;;;;4.92;91.84;99457.88;5011414;28;8857;-55
2021/03/13 04:31:40;;;;;;;;;9.67;9.67;;;;;4.96;91.78;99464.81;5011113;28;8843;-55
2021/03/13 04:34:10;;;;;;;;;14.25;13.50;;;;;4.84;91.67;99462.66;5011802;28;8839;-52
2021/03/13 04:36:38;;;;;;;;;15.00;12.00;;;;;4.96;91.98;99463.97;5012512;28;8850;-52
2021/03/13 04:39:06;;;;;;;;;17.00;11.33;;;;;4.88;91.56;99466.06;5011261;28;8855;-53
2021/03/13 04:41:34;;;;;;;;;18.00;13.33;;;;;4.99;91.60;99464.69;5010865;28;8859;-55
2021/03/13 04:44:02;;;;;;;;;13.33;10.33;;;;;4.99;90.88;99459.38;5027731;28;8896;-54
2021/03/13 04:46:35;;;;;;;;;13.00;12.00;;;;;4.92;91.36;99463.19;5011778;28;8851;-54
2021/03/13 04:49:05;;;;;;;;;10.33;10.33;;;;;5.07;90.82;99459.91;5010449;28;8853;-54
2021/03/13 04:51:32;;;;;;;;;14.33;9.67;;;;;4.89;90.99;99465.13;5011840;28;8859;-55
2021/03/13 04:54:00;;;;;;;;;13.00;8.67;;;;;5.16;90.74;99460.44;5012246;28;8840;-52
2021/03/13 04:56:26;;;;;;;;;15.00;12.00;;;;;5.07;90.52;99451.06;5012350;28;8866;-54
2021/03/13 04:58:54;;;;;;;;;13.33;13.33;;;;;4.94;90.71;99456.03;5002096;28;8847;-55
2021/03/13 05:01:21;;;;;;;;;14.00;6.33;;;;;5.04;90.56;99452.06;5011240;28;8866;-55
2021/03/13 05:03:48;;;;;;;;;18.33;13.00;;;;;4.98;90.61;99454.97;5011851;28;8859;-56
2021/03/13 05:06:16;;;;;;;;;8.00;8.00;;;;;4.86;91.34;99447.50;5012417;28;8851;-56
2021/03/13 05:08:42;;;;;;;;;13.33;9.67;;;;;4.94;92.00;99445.38;5012019;28;8862;-53
2021/03/13 05:11:11;;;;;;;;;16.33;10.33;;;;;4.84;91.28;99449.34;5011687;28;8855;-55
2021/03/13 05:13:39;;;;;;;;;13.25;12.00;;;;;4.83;92.14;99439.66;5011952;28;8877;-55
2021/03/13 05:16:06;;;;;;;;;18.67;15.67;;;;;4.80;92.16;99431.81;5011693;28;8886;-55
2021/03/13 05:18:33;;;;;;;;;14.00;12.67;;;;;4.90;91.70;99429.63;5012095;28;8839;-56
2021/03/13 05:21:01;;;;;;;;;18.50;14.50;;;;;4.87;91.44;99427.97;5012452;28;8881;-53
2021/03/13 05:23:28;;;;;;;;;17.33;15.67;;;;;4.83;91.21;99437.00;5011317;28;8855;-54
2021/03/13 05:25:55;;;;;;;;;17.33;11.67;;;;;4.86;91.25;99444.00;5010443;28;8965;-54
2021/03/13 05:28:22;;;;;;;;;14.67;11.67;;;;;4.85;91.17;99445.78;5011397;28;8843;-55
2021/03/13 05:30:49;;;;;;;;;19.00;13.00;;;;;5.04;90.65;99451.19;5010999;28;8862;-56
2021/03/13 05:33:16;;;;;;;;;20.25;15.00;;;;;5.21;90.15;99447.78;5011533;28;8843;-53
2021/03/13 05:35:43;;;;;;;;;14.25;11.25;;;;;5.17;90.28;99446.22;5011618;28;9568;-54
2021/03/13 05:38:10;;;;;;;;;12.00;11.33;;;;;5.15;89.74;99456.06;5011068;28;8819;-51
2021/03/13 05:40:38;;;;;;;;;11.00;11.00;;;;;5.42;89.25;99462.81;5010887;28;8866;-54
2021/03/13 05:43:05;;;;;;;;;13.00;11.00;;;;;5.55;88.48;99462.28;5011024;28;8863;-54
2021/03/13 05:45:32;;;;;;;;;13.00;9.00;;;;;5.81;87.80;99472.63;5015909;28;8855;-54
2021/03/13 05:48:02;;;;;;;;;14.00;11.33;;;;;5.73;86.57;99466.78;5016740;28;9641;-55
2021/03/13 05:50:30;;;;;;;;;13.00;8.67;;;;;6.08;86.27;99472.31;5017116;28;8843;-54
2021/03/13 05:52:58;;;;;;;;;13.00;9.33;;;;;7.37;80.94;99472.19;5016941;28;8832;-53
2021/03/13 05:55:25;;;;;;;;;9.00;8.00;;;;;8.32;77.82;99471.53;5017371;28;8882;-54
2021/03/13 05:57:53;;;;;;;;;9.00;9.00;;;;;8.06;76.68;99476.53;5016698;28;8867;-53
2021/03/13 06:00:22;;;;;;;;;7.67;7.67;;;;;8.10;76.80;99472.72;5016864;28;8852;-53
2021/03/13 06:02:54;;;;;;;;;9.33;9.00;;;;;8.51;75.33;99480.31;5017497;28;9579;-53
2021/03/13 06:05:21;;;;;;;;;8.67;6.00;;;;;8.90;74.04;99467.38;5017807;28;8851;-55
2021/03/13 06:07:49;;;;;;;;;10.33;7.67;;;;;9.71;70.81;99475.94;5017854;28;8939;-55
2021/03/13 06:10:16;;;;;;;;;11.00;6.33;;;;;9.92;69.82;99484.47;5016398;28;8942;-54
2021/03/13 06:12:44;;;;;;;;;10.67;7.00;;;;;10.60;66.37;99489.13;5016606;28;9605;-57
2021/03/13 06:15:11;;;;;;;;;6.33;6.00;;;;;7.56;76.83;99493.47;5017590;28;11480;-55
2021/03/13 06:17:53;;;;;;;;;9.33;8.33;;;;;6.84;81.13;99494.44;5018187;28;8859;-57
2021/03/13 06:20:38;;;;;;;;;13.67;10.00;;;;;6.68;83.29;99486.34;4998833;28;8876;-54
2021/03/13 06:23:08;;;;;;;;;17.00;11.00;;;;;6.67;83.66;99484.63;5017185;28;8863;-56
2021/03/13 06:25:39;;;;;;;;;13.67;11.33;;;;;6.47;84.08;99484.72;5017788;28;8882;-53
2021/03/13 06:28:19;;;;;;;;;12.00;9.67;;;;;6.60;84.31;99491.19;5018005;28;8865;-55
2021/03/13 06:30:50;;;;;;;;;11.33;9.00;;;;;6.71;84.27;99491.50;5015748;28;9267;-54
2021/03/13 06:33:25;;;;;;;;;14.67;11.33;;;;;6.77;84.04;99487.69;5016412;28;8859;-52
2021/03/13 06:35:59;;;;;;;;;16.00;13.67;;;;;6.75;82.70;99490.44;5017662;28;8851;-54
2021/03/13 06:38:28;;;;;;;;;12.67;12.67;;;;;7.05;81.87;99492.50;5017240;28;9678;-53
2021/03/13 06:40:58;;;;;;;;;10.00;10.00;;;;;6.78;83.13;99495.63;5016810;28;8855;-55
2021/03/13 06:43:30;;;;;;;;;11.33;9.33;;;;;6.87;83.58;99494.28;5012254;28;8973;-54
2021/03/13 06:46:09;;;;;;;;;14.00;12.00;;;;;6.76;84.25;99494.81;5017424;28;8906;-53
2021/03/13 06:48:46;;;;;;;;;13.67;10.00;;;;;6.99;83.61;99507.03;5017810;28;8920;-55
2021/03/13 06:51:30;;;;;;;;;17.00;12.00;;;;;7.06;82.32;99499.59;5016892;28;8846;-55
2021/03/13 06:54:10;;;;;;;;;15.33;13.00;;;;;7.05;83.44;99497.84;5017454;28;8842;-55
2021/03/13 06:56:44;;;;;;;;;14.67;10.67;;;;;7.28;82.52;99498.50;5013908;28;8945;-53
2021/03/13 06:59:33;;;;;;;;;12.00;10.00;;;;;7.73;80.71;99502.41;5014215;28;8831;-54
2021/03/13 07:02:06;;;;;;;;;14.67;11.00;;;;;7.51;81.18;99500.00;5013984;28;8827;-54
2021/03/13 07:04:42;;;;;;;;;12.67;10.33;;;;;7.70;80.80;99490.91;5013173;28;8855;-53
2021/03/13 07:07:13;;;;;;;;;14.00;9.33;;;;;7.63;81.20;99505.53;5014167;28;8827;-55
2021/03/13 07:09:54;;;;;;;;;11.33;9.00;;;;;9.84;71.38;99509.06;5014024;28;8819;-56
2021/03/13 07:12:33;;;;;;;;;8.25;6.00;;;;;11.19;66.44;99508.50;5012952;28;8862;-54
2021/03/13 07:15:23;;;;;;;;;6.75;4.00;;;;;10.52;67.51;99521.84;5013362;28;11616;-55
2021/03/13 07:17:54;;;;;;;;;9.00;9.00;;;;;9.32;72.20;99517.59;4994891;28;11607;-54
2021/03/13 07:20:24;;;;;;;;;8.25;8.00;;;;;9.83;70.47;99519.91;5004112;28;11585;-54
2021/03/13 07:22:58;;;;;;;;;9.33;8.00;;;;;9.11;71.79;99513.47;5012727;28;12294;-56
2021/03/13 07:25:28;;;;;;;;;14.67;10.00;;;;;7.82;77.31;99515.25;5013363;28;12315;-55
2021/03/13 07:28:00;;;;;;;;;11.33;10.00;;;;;7.91;77.56;99521.00;5013300;28;9662;-55
2021/03/13 07:30:31;;;;;;;;;9.67;9.67;;;;;7.95;77.81;99532.38;5011967;28;8949;-56
2021/03/13 07:33:11;;;;;;;;;11.67;9.33;;;;;8.03;77.45;99529.28;5012335;28;8845;-53
2021/03/13 07:35:48;;;;;;;;;14.00;11.00;;;;;8.40;76.08;99538.03;5012845;28;8858;-57
2021/03/13 07:38:16;;;;;;;;;7.00;7.00;;;;;8.25;76.53;99540.56;5012906;28;8867;-56
2021/03/13 07:40:47;;;;;;;;;9.33;8.33;;;;;8.53;75.79;99534.59;5012812;28;8942;-57
2021/03/13 07:43:16;;;;;;;;;10.33;10.00;;;;;8.26;77.13;99531.59;5012964;28;8871;-54
2021/03/13 07:45:47;;;;;;;;;14.33;11.33;;;;;8.08;77.09;99538.81;5013146;28;8962;-49
2021/03/13 07:48:15;;;;;;;;;15.00;14.00;;;;;8.43;76.46;99545.91;5011669;28;8877;-55
2021/03/13 07:50:48;;;;;;;;;11.00;11.00;;;;;8.72;75.62;99536.25;5013497;28;8882;-54
2021/03/13 07:53:16;;;;;;;;;19.33;10.67;;;;;8.41;75.47;99537.94;5012248;28;8859;-56
2021/03/13 07:55:53;;;;;;;;;11.33;11.00;;;;;8.25;76.48;99531.69;5012219;28;8977;-56
2021/03/13 07:58:22;;;;;;;;;11.33;8.67;;;;;8.70;75.01;99530.97;5011618;28;8963;-53
2021/03/13 08:00:49;;;;;;;;;16.67;10.00;;;;;8.86;75.06;99539.00;5012306;28;8894;-56
2021/03/13 08:03:48;;;;;;;;;15.00;12.00;;;;;9.40;73.60;99536.75;5013458;28;8843;-56
2021/03/13 08:06:17;;;;;;;;;8.67;8.00;;;;;9.50;71.97;99534.38;5013013;28;8885;-56
2021/03/13 08:08:50;;;;;;;;;10.33;8.00;;;;;9.08;73.15;99527.06;5011873;28;8901;-55
2021/03/13 08:11:19;;;;;;;;;14.33;8.67;;;;;9.56;72.42;99527.81;5011879;28;8843;-58
2021/03/13 08:14:44;;;;;;;;;7.00;6.00;;;;;9.37;70.39;99531.59;5010109;28;8907;-53
2021/03/13 08:17:12;;;;;;;;;10.00;5.00;;;;;9.70;70.29;99530.50;5003906;28;11504;-55
2021/03/13 08:19:44;;;;;;;;;6.33;5.00;;;;;9.60;68.00;99534.69;5014004;28;8819;-56
2021/03/13 08:22:15;;;;;;;;;7.33;6.00;;;;;10.03;67.87;99541.00;5013314;28;11503;-57
2021/03/13 08:24:48;;;;;;;;;6.33;5.00;;;;;9.94;68.06;99535.34;5014523;28;11480;-56
2021/03/13 08:27:38;;;;;;;;;6.00;4.00;;;;;9.76;66.72;99540.84;5013945;28;11559;-50
2021/03/13 08:30:19;;;;;;;;;4.33;4.33;;;;;9.82;67.11;99535.13;5013032;28;11514;-53
2021/03/13 08:33:06;;;;;;;;;6.33;6.00;;;;;10.25;66.23;99529.78;5014171;28;11616;-58
2021/03/13 08:35:44;;;;;;;;;7.67;7.00;;;;;10.05;66.56;99525.66;5014048;28;11571;-56
2021/03/13 08:38:13;;;;;;;;;7.67;6.00;;;;;10.09;66.89;99534.41;5001763;28;11575;-57
2021/03/13 08:40:53;;;;;;;;;7.50;5.75;;;;;10.27;66.13;99535.06;5013581;28;11655;-53
2021/03/13 08:43:36;;;;;;;;;7.50;3.00;;;;;10.49;65.21;99531.91;5012745;28;11517;-57
2021/03/13 08:46:05;;;;;;;;;8.00;4.25;;;;;10.70;65.43;99535.91;5013363;28;11531;-57
2021/03/13 08:49:27;;;;;;;;;6.75;6.00;;;;;10.47;64.69;99525.78;5012837;28;11513;-56
2021/03/13 08:52:08;;;;;;;;;7.50;7.50;;;;;10.54;64.36;99529.81;4959223;28;11469;-54
2021/03/13 08:54:41;;;;;;;;;3.75;3.00;;;;;10.50;63.96;99530.94;4966714;28;11451;-58
2021/03/13 08:57:11;;;;;;;;;6.00;6.00;;;;;10.53;63.96;99528.94;4998065;28;11526;-56
2021/03/13 09:00:00;;;;;;;;;7.00;4.00;;;;;10.62;63.03;99522.13;5013577;28;11506;-58
2021/03/13 09:02:39;;;;;;;;;7.50;4.50;;;;;11.04;62.36;99525.66;5007661;28;12245;-58
2021/03/13 09:05:11;;;;;;;;;9.00;7.00;;;;;10.86;63.14;99526.84;5011925;28;11551;-57
2021/03/13 09:07:48;;;;;;;;;10.25;9.00;;;;;11.24;62.18;99518.06;4999599;28;11552;-57
2021/03/13 09:10:16;;;;;;;;;9.00;4.00;;;;;11.09;62.27;99528.91;5008989;28;11554;-57
2021/03/13 09:12:44;;;;;;;;;4.00;4.00;;;;;11.42;61.25;99522.22;5006508;28;11650;-57
2021/03/13 09:15:15;;;;;;;;;7.00;4.00;;;;;11.99;60.88;99504.88;5013634;28;11505;-57
2021/03/13 09:17:43;;;;;;;;;8.50;6.00;;;;;11.77;59.81;99509.06;5012683;28;11592;-57
2021/03/13 09:20:15;;;;;;;;;6.50;3.75;;;;;11.74;59.55;99513.75;5012019;28;12229;-57
2021/03/13 09:22:47;;;;;;;;;6.25;6.00;;;;;11.58;60.63;99500.50;5011602;28;11515;-58
2021/03/13 09:25:21;;;;;;;;;4.00;3.75;;;;;11.88;58.65;99491.34;5011172;28;11499;-57
2021/03/13 09:27:52;;;;;;;;;4.75;4.75;;;;;12.05;58.57;99488.31;5011788;28;11506;-58
2021/03/13 09:30:24;;;;;;;;;5.25;4.25;;;;;11.72;58.24;99483.44;5006813;28;11568;-58
2021/03/13 09:32:52;;;;;;;;;5.00;4.00;;;;;11.94;58.23;99483.69;5012089;28;11510;-57
2021/03/13 09:35:24;;;;;;;;;4.00;4.00;;;;;12.03;57.77;99495.63;5012588;28;11480;-58
2021/03/13 09:37:51;;;;;;;;;3.75;3.75;;;;;12.60;56.52;99502.31;5012785;28;12415;-58
2021/03/13 09:40:23;;;;;;;;;4.00;4.00;;;;;12.90;56.26;99493.81;5011818;28;11605;-59
2021/03/13 09:42:51;;;;;;;;;7.50;4.75;;;;;12.15;56.70;99483.13;5011403;28;11535;-58
2021/03/13 09:45:24;;;;;;;;;4.00;4.00;;;;;12.84;55.92;99487.03;5009602;28;11521;-58
2021/03/13 09:47:56;;;;;;;;;4.00;4.00;;;;;12.92;54.64;99479.25;4991650;28;11491;-58
2021/03/13 09:50:40;;;;;;;;;3.00;3.00;;;;;12.71;55.04;99475.44;5011547;28;11571;-58
2021/03/13 09:53:08;;;;;;;;;7.25;5.00;;;;;12.79;55.43;99474.88;5009572;28;11510;-58
2021/03/13 09:55:37;;;;;;;;;5.00;5.00;;;;;12.58;55.98;99475.50;5011307;28;11506;-58
2021/03/13 09:58:05;;;;;;;;;7.50;5.00;;;;;12.71;54.11;99488.91;5011321;28;12248;-56
2021/03/13 10:00:43;;;;;;;;;4.75;3.75;;;;;12.87;54.89;99470.63;5012327;28;11515;-58
2021/03/13 10:03:17;;;;;;;;;3.75;3.00;;;;;12.55;54.75;99466.78;5012853;28;11501;-57
2021/03/13 10:05:58;;;;;;;;;5.00;5.00;;;;;12.50;53.77;99470.66;5012065;28;11571;-57
2021/03/13 10:08:38;;;;;;;;;3.00;2.25;;;;;12.76;54.28;99462.50;5000864;28;11621;-57
2021/03/13 10:11:05;;;;;;;;;5.00;4.00;;;;;12.95;53.79;99462.88;4992451;28;11629;-57
2021/03/13 10:13:32;;;;;;;;;5.50;3.25;;;;;12.86;53.74;99468.06;4992429;28;11561;-57
2021/03/13 10:16:02;;;;;;;;;10.25;4.25;;;;;12.98;53.02;99460.91;4994769;28;11639;-57
2021/03/13 10:18:29;;;;;;;;;9.75;4.25;;;;;13.25;51.86;99455.28;5003792;28;11576;-56
2021/03/13 10:21:00;;;;;;;;;6.00;4.00;;;;;13.06;52.26;99461.19;5011458;28;11595;-57
2021/03/13 10:23:33;;;;;;;;;7.75;4.00;;;;;13.16;51.61;99452.31;5012554;28;11520;-57
2021/03/13 10:26:12;;;;;;;;;3.00;3.00;;;;;13.04;51.33;99455.91;5012771;28;11509;-58
2021/03/13 10:28:46;;;;;;;;;7.25;4.00;;;;;13.34;50.76;99462.69;5011647;28;12257;-58
2021/03/13 10:31:26;;;;;;;;;3.50;3.50;;;;;13.25;50.37;99449.88;5014593;28;11541;-58
2021/03/13 10:33:57;;;;;;;;;8.25;4.50;;;;;13.18;50.77;99444.94;5016696;28;11504;-55
2021/03/13 10:36:46;;;;;;;;;6.25;4.00;;;;;13.62;50.64;99456.00;5016495;28;11506;-55
2021/03/13 10:39:13;;;;;;;;;7.00;4.75;;;;;13.68;50.43;99447.44;5016040;28;11636;-57
2021/03/13 10:41:54;;;;;;;;;7.25;4.25;;;;;13.22;50.08;99442.88;5015651;28;11541;-57
2021/03/13 10:44:21;;;;;;;;;4.50;4.50;;;;;13.30;50.88;99445.88;5016566;28;11535;-56
2021/03/13 10:46:48;;;;;;;;;8.25;5.50;;;;;13.50;51.31;99443.47;5016488;28;12229;-56
2021/03/13 10:49:26;;;;;;;;;6.25;5.50;;;;;14.17;50.94;99443.56;5015881;28;11499;-59
2021/03/13 10:51:54;;;;;;;;;8.75;4.25;;;;;14.00;51.17;99438.63;5016014;28;11630;-58
2021/03/13 10:54:29;;;;;;;;;6.75;6.00;;;;;14.18;50.95;99436.31;5006107;28;11504;-58
2021/03/13 10:57:06;;;;;;;;;7.00;6.00;;;;;13.88;51.17;99436.94;5015440;28;11639;-58
2021/03/13 10:59:34;;;;;;;;;4.25;2.00;;;;;13.60;51.31;99433.69;4996194;28;11550;-59
2021/03/13 11:02:02;;;;;;;;;8.25;8.00;;;;;13.73;52.18;99439.84;4996028;28;11519;-58
2021/03/13 11:04:29;;;;;;;;;6.25;4.00;;;;;13.47;50.71;99432.94;4996159;28;11521;-58
2021/03/13 11:06:57;;;;;;;;;6.25;6.25;;;;;13.57;50.52;99426.69;5000942;28;11523;-57
2021/03/13 11:09:24;;;;;;;;;7.50;5.25;;;;;13.95;50.72;99424.63;5016039;28;11542;-58
2021/03/13 11:11:51;;;;;;;;;4.50;4.50;;;;;14.09;49.24;99427.13;5015375;28;11555;-56
2021/03/13 11:14:18;;;;;;;;;3.25;3.00;;;;;13.82;49.78;99427.44;5015968;28;11615;-57
2021/03/13 11:16:46;;;;;;;;;5.25;5.00;;;;;14.21;49.01;99415.31;5015090;28;11516;-57
2021/03/13 11:19:14;;;;;;;;;3.75;3.75;;;;;14.13;46.91;99412.38;5015031;28;11510;-58
2021/03/13 11:21:41;;;;;;;;;4.00;3.00;;;;;14.33;47.82;99423.41;5015104;28;11511;-57
2021/03/13 11:24:09;;;;;;;;;3.50;3.00;;;;;13.83;49.44;99421.94;5014626;28;11483;-59
2021/03/13 11:26:36;;;;;;;;;4.00;3.75;;;;;14.18;49.33;99410.16;5014949;28;11504;-58
2021/03/13 11:29:05;;;;;;;;;1.00;1.00;;;;;13.97;48.66;99403.78;5015061;28;11546;-57
2021/03/13 11:31:33;;;;;;;;;3.00;3.00;;;;;13.91;48.92;99396.19;5014263;28;11606;-57
2021/03/13 11:34:02;;;;;;;;;4.00;3.00;;;;;13.93;48.81;99394.22;5013928;28;11810;-57
2021/03/13 11:36:29;;;;;;;;;4.00;3.00;;;;;13.97;48.38;99384.91;5014465;28;11533;-55
2021/03/13 11:38:56;;;;;;;;;6.25;2.75;;;;;13.91;47.38;99391.66;5014898;28;11538;-53
2021/03/13 11:41:23;;;;;;;;;4.50;4.50;;;;;13.92;48.97;99387.09;5014318;28;11612;-58
2021/03/13 11:43:50;;;;;;;;;2.25;2.25;;;;;13.93;49.00;99378.91;5013480;28;11528;-55
2021/03/13 11:46:17;;;;;;;;;4.25;4.00;;;;;14.28;48.28;99386.81;5014564;28;11518;-57
2021/03/13 11:48:45;;;;;;;;;4.00;4.00;;;;;14.25;46.20;99381.69;5014390;28;11542;-56
2021/03/13 11:51:12;;;;;;;;;1.00;1.00;;;;;14.04;45.56;99380.72;5012085;28;11485;-56
2021/03/13 11:53:40;;;;;;;;;3.00;1.75;;;;;14.54;44.99;99374.91;5014035;28;12277;-58
2021/03/13 11:56:08;;;;;;;;;3.25;2.00;;;;;14.44;46.61;99372.06;5014140;28;11524;-56
2021/03/13 11:58:35;;;;;;;;;2.75;2.25;;;;;14.39;45.75;99367.03;5012359;28;11559;-57